Nearby METAR Reports

 

EDNY - Friedrichshafen, Germany
Distance from station: ONO 32km
aktuell: 06/07/2022 07:50
klar
klar
 Wind von varies
Wind: varies 4 km/h
Temperatur: 16°C
Taupunkt: 13°C
Luftfeuchte: 83%
Luftdruck: 1023 hPa
Zusammenfassung: klar
Visibility: greater than 10 km
2022/07/06 05:50 EDNY 060550Z VRB02KT CAVOK 16/13 Q1023
LSZR - Rheineck/Altenrh, Switzerland
Distance from station: OSO 37km
aktuell: 06/07/2022 07:50
klar
klar
 Wind von varies
Wind: varies 6 km/h
Temperatur: 18°C
Taupunkt: 14°C
Luftfeuchte: 78%
Luftdruck: 1023 hPa
Zusammenfassung: klar
Visibility: greater than 10 km
2022/07/06 05:50 LSZR 060550Z VRB03KT CAVOK 18/14 Q1023 NOSIG RMK B
LSMD - Dubendorf, Switzerland
Distance from station: SW 40km
aktuell: 06/07/2022 07:50
klar
klar
 Wind von calm
Wind: Windstill
Temperatur: 18°C
Taupunkt: 13°C
Luftfeuchte: 73%
Luftdruck: 1024 hPa
Zusammenfassung: klar
Visibility: greater than 10 km
2022/07/06 05:50 LSMD 060550Z 00000KT CAVOK 18/13 Q1024 RMK BLU
 
LSZH - Zurich-Kloten (a, Switzerland
Distance from station: WSW 44km
aktuell: 06/07/2022 07:50
klar
klar
 Wind von varies
Wind: varies 6 km/h
Temperatur: 17°C
Taupunkt: 11°C
Luftfeuchte: 68%
Luftdruck: 1024 hPa
Zusammenfassung: klar
Visibility: greater than 10 km
2022/07/06 05:50 LSZH 060550Z VRB03KT CAVOK 17/11 Q1024 NOSIG
LSME - Emmen, Switzerland
Distance from station: SW 82km
aktuell: 06/07/2022 07:20

 Wind von calm
Wind: Windstill
Visibility: 10 km
2022/07/06 05:20 LSME 060520Z 00000KT 9999 CAVOK 17/17 Q1024 RMK BLU
LSZC - Buochs, Switzerland
Distance from station: SW 89km
aktuell: 06/07/2022 07:50
Few Clouds
Few Clouds
 Wind von SW
Wind: SW 6 km/h
Temperatur: 17°C
Taupunkt: 13°C
Luftfeuchte: 77%
Luftdruck: 1024 hPa
Clouds: Few Clouds
Visibility: 10 km
Cloud details: Few Clouds 1524 m
2022/07/06 05:50 LSZC 060550Z 23003KT 9999 FEW050 17/13 Q1024
 
ETHL - Laupheim (ger-Ar, Germany
Distance from station: NO 92km
aktuell: 06/07/2022 07:20
Few Clouds
Few Clouds
 Wind von WSW
Wind: WSW 4 km/h
Temperatur: 15°C
Taupunkt: 10°C
Luftfeuchte: 72%
Luftdruck: 1023 hPa
Clouds: Few Clouds
Visibility: 10 km
Cloud details: Few Clouds 2134 m
2022/07/06 05:20 ETHL 060520Z 24002KT 9999 FEW070 15/10 Q1023 BLU+BLU+
EDJA - Memmingen Allgau, Germany
Distance from station: ONO 95km
aktuell: 06/07/2022 07:50
klar
klar
 Wind von SW
Wind: SW 7 km/h
Temperatur: 15°C
Taupunkt: 12°C
Luftfeuchte: 82%
Luftdruck: 1024 hPa
Zusammenfassung: klar
Visibility: greater than 10 km
2022/07/06 05:50 EDJA 060550Z 23004KT CAVOK 15/12 Q1024
LSMA - Alpnach, Switzerland
Distance from station: SW 95km
aktuell: 06/07/2022 07:50
klar
klar
 Wind von varies
Wind: varies 4 km/h
Temperatur: 17°C
Taupunkt: 13°C
Luftfeuchte: 77%
Luftdruck: 1024 hPa
Zusammenfassung: klar
Visibility: greater than 10 km
2022/07/06 05:50 LSMA 060550Z VRB02KT CAVOK 17/13 Q1024 RMK BLU